sensor_id;sensor_type;location;lat;lon;timestamp;P1;durP1;ratioP1;P2;durP2;ratioP2
58685;SDS011;44465;53.206;-6.106;2023-04-07T00:00:50;1.05;;;0.93;;
58685;SDS011;44465;53.206;-6.106;2023-04-07T00:03:15;1.55;;;1.30;;
58685;SDS011;44465;53.206;-6.106;2023-04-07T00:05:41;3.67;;;1.15;;
58685;SDS011;44465;53.206;-6.106;2023-04-07T00:08:07;4.70;;;1.30;;
58685;SDS011;44465;53.206;-6.106;2023-04-07T00:10:32;0.90;;;0.85;;
58685;SDS011;44465;53.206;-6.106;2023-04-07T00:12:58;2.35;;;0.90;;
58685;SDS011;44465;53.206;-6.106;2023-04-07T00:15:23;1.33;;;0.88;;
58685;SDS011;44465;53.206;-6.106;2023-04-07T00:17:49;3.60;;;1.10;;
58685;SDS011;44465;53.206;-6.106;2023-04-07T00:20:14;1.33;;;0.82;;
58685;SDS011;44465;53.206;-6.106;2023-04-07T00:22:40;1.60;;;0.75;;
58685;SDS011;44465;53.206;-6.106;2023-04-07T00:25:06;1.80;;;1.05;;
58685;SDS011;44465;53.206;-6.106;2023-04-07T00:27:32;1.63;;;0.80;;
58685;SDS011;44465;53.206;-6.106;2023-04-07T00:29:58;2.90;;;0.82;;
58685;SDS011;44465;53.206;-6.106;2023-04-07T00:32:23;1.85;;;1.15;;
58685;SDS011;44465;53.206;-6.106;2023-04-07T00:34:49;2.20;;;0.85;;
58685;SDS011;44465;53.206;-6.106;2023-04-07T00:37:14;1.65;;;0.80;;
58685;SDS011;44465;53.206;-6.106;2023-04-07T00:39:40;0.52;;;0.52;;
58685;SDS011;44465;53.206;-6.106;2023-04-07T00:42:06;0.60;;;0.60;;
58685;SDS011;44465;53.206;-6.106;2023-04-07T00:44:32;0.90;;;0.70;;
58685;SDS011;44465;53.206;-6.106;2023-04-07T00:46:58;1.20;;;0.90;;
58685;SDS011;44465;53.206;-6.106;2023-04-07T00:49:24;0.70;;;0.70;;
58685;SDS011;44465;53.206;-6.106;2023-04-07T00:51:53;0.85;;;0.70;;
58685;SDS011;44465;53.206;-6.106;2023-04-07T00:54:19;1.10;;;0.73;;
58685;SDS011;44465;53.206;-6.106;2023-04-07T00:56:47;2.10;;;0.77;;
58685;SDS011;44465;53.206;-6.106;2023-04-07T00:59:13;1.23;;;1.08;;
58685;SDS011;44465;53.206;-6.106;2023-04-07T01:01:41;1.17;;;0.63;;
58685;SDS011;44465;53.206;-6.106;2023-04-07T01:07:08;2.10;;;0.93;;
58685;SDS011;44465;53.206;-6.106;2023-04-07T01:10:02;0.85;;;0.73;;
58685;SDS011;44465;53.206;-6.106;2023-04-07T01:15:10;1.02;;;0.50;;
58685;SDS011;44465;53.206;-6.106;2023-04-07T01:17:47;0.95;;;0.65;;
58685;SDS011;44465;53.206;-6.106;2023-04-07T01:20:18;0.70;;;0.70;;
58685;SDS011;44465;53.206;-6.106;2023-04-07T01:22:50;1.95;;;0.80;;
58685;SDS011;44465;53.206;-6.106;2023-04-07T01:25:37;1.10;;;0.60;;
58685;SDS011;44465;53.206;-6.106;2023-04-07T01:31:11;1.38;;;0.70;;
58685;SDS011;44465;53.206;-6.106;2023-04-07T01:33:39;1.83;;;0.90;;
58685;SDS011;44465;53.206;-6.106;2023-04-07T01:36:09;0.95;;;0.60;;
58685;SDS011;44465;53.206;-6.106;2023-04-07T01:38:36;1.57;;;0.70;;
58685;SDS011;44465;53.206;-6.106;2023-04-07T01:41:02;2.00;;;0.85;;
58685;SDS011;44465;53.206;-6.106;2023-04-07T01:43:30;0.73;;;0.73;;
58685;SDS011;44465;53.206;-6.106;2023-04-07T01:45:56;1.35;;;0.57;;
58685;SDS011;44465;53.206;-6.106;2023-04-07T01:48:22;1.60;;;0.85;;
58685;SDS011;44465;53.206;-6.106;2023-04-07T01:50:50;1.40;;;0.65;;
58685;SDS011;44465;53.206;-6.106;2023-04-07T01:53:16;1.08;;;0.52;;
58685;SDS011;44465;53.206;-6.106;2023-04-07T01:55:42;0.73;;;0.50;;
58685;SDS011;44465;53.206;-6.106;2023-04-07T01:58:08;0.47;;;0.43;;
58685;SDS011;44465;53.206;-6.106;2023-04-07T02:00:37;1.17;;;0.93;;
58685;SDS011;44465;53.206;-6.106;2023-04-07T02:03:13;0.50;;;0.50;;
58685;SDS011;44465;53.206;-6.106;2023-04-07T02:05:48;0.52;;;0.52;;
58685;SDS011;44465;53.206;-6.106;2023-04-07T02:08:16;1.27;;;0.98;;
58685;SDS011;44465;53.206;-6.106;2023-04-07T02:10:46;1.42;;;0.60;;
58685;SDS011;44465;53.206;-6.106;2023-04-07T02:13:17;0.68;;;0.68;;
58685;SDS011;44465;53.206;-6.106;2023-04-07T02:15:45;0.77;;;0.60;;
58685;SDS011;44465;53.206;-6.106;2023-04-07T02:18:16;1.10;;;0.50;;
58685;SDS011;44465;53.206;-6.106;2023-04-07T02:20:44;0.98;;;0.50;;
58685;SDS011;44465;53.206;-6.106;2023-04-07T02:23:11;0.67;;;0.67;;
58685;SDS011;44465;53.206;-6.106;2023-04-07T02:25:37;1.55;;;0.52;;
58685;SDS011;44465;53.206;-6.106;2023-04-07T02:28:03;0.50;;;0.50;;
58685;SDS011;44465;53.206;-6.106;2023-04-07T02:30:30;0.70;;;0.50;;
58685;SDS011;44465;53.206;-6.106;2023-04-07T02:32:56;0.75;;;0.70;;
58685;SDS011;44465;53.206;-6.106;2023-04-07T02:35:21;0.60;;;0.45;;
58685;SDS011;44465;53.206;-6.106;2023-04-07T02:37:48;0.82;;;0.50;;
58685;SDS011;44465;53.206;-6.106;2023-04-07T02:40:14;0.65;;;0.60;;
58685;SDS011;44465;53.206;-6.106;2023-04-07T02:42:39;0.80;;;0.70;;
58685;SDS011;44465;53.206;-6.106;2023-04-07T02:45:06;0.43;;;0.43;;
58685;SDS011;44465;53.206;-6.106;2023-04-07T02:47:33;0.57;;;0.45;;
58685;SDS011;44465;53.206;-6.106;2023-04-07T02:49:59;0.32;;;0.32;;
58685;SDS011;44465;53.206;-6.106;2023-04-07T02:52:24;0.85;;;0.70;;
58685;SDS011;44465;53.206;-6.106;2023-04-07T02:54:51;1.30;;;0.52;;
58685;SDS011;44465;53.206;-6.106;2023-04-07T02:57:20;1.30;;;0.57;;
58685;SDS011;44465;53.206;-6.106;2023-04-07T02:59:47;0.47;;;0.47;;
58685;SDS011;44465;53.206;-6.106;2023-04-07T03:02:14;0.85;;;0.85;;
58685;SDS011;44465;53.206;-6.106;2023-04-07T03:04:39;1.10;;;0.50;;
58685;SDS011;44465;53.206;-6.106;2023-04-07T03:07:05;0.68;;;0.68;;
58685;SDS011;44465;53.206;-6.106;2023-04-07T03:09:31;0.55;;;0.55;;
58685;SDS011;44465;53.206;-6.106;2023-04-07T03:11:57;0.57;;;0.50;;
58685;SDS011;44465;53.206;-6.106;2023-04-07T03:14:25;0.90;;;0.57;;
58685;SDS011;44465;53.206;-6.106;2023-04-07T03:16:50;1.25;;;0.68;;
58685;SDS011;44465;53.206;-6.106;2023-04-07T03:19:16;0.95;;;0.40;;
58685;SDS011;44465;53.206;-6.106;2023-04-07T03:21:45;0.65;;;0.55;;
58685;SDS011;44465;53.206;-6.106;2023-04-07T03:24:10;0.90;;;0.85;;
58685;SDS011;44465;53.206;-6.106;2023-04-07T03:26:37;1.25;;;0.55;;
58685;SDS011;44465;53.206;-6.106;2023-04-07T03:29:05;0.50;;;0.50;;
58685;SDS011;44465;53.206;-6.106;2023-04-07T03:31:31;0.63;;;0.55;;
58685;SDS011;44465;53.206;-6.106;2023-04-07T03:33:56;0.75;;;0.40;;
58685;SDS011;44465;53.206;-6.106;2023-04-07T03:36:23;0.50;;;0.50;;
58685;SDS011;44465;53.206;-6.106;2023-04-07T03:38:49;0.47;;;0.47;;
58685;SDS011;44465;53.206;-6.106;2023-04-07T03:41:16;0.73;;;0.40;;
58685;SDS011;44465;53.206;-6.106;2023-04-07T03:43:42;0.45;;;0.40;;
58685;SDS011;44465;53.206;-6.106;2023-04-07T03:46:09;0.50;;;0.50;;
58685;SDS011;44465;53.206;-6.106;2023-04-07T03:48:35;0.50;;;0.40;;
58685;SDS011;44465;53.206;-6.106;2023-04-07T03:51:04;1.15;;;0.60;;
58685;SDS011;44465;53.206;-6.106;2023-04-07T03:53:30;0.85;;;0.50;;
58685;SDS011;44465;53.206;-6.106;2023-04-07T03:55:57;1.03;;;0.63;;
58685;SDS011;44465;53.206;-6.106;2023-04-07T03:58:43;0.70;;;0.52;;
58685;SDS011;44465;53.206;-6.106;2023-04-07T04:01:15;1.08;;;0.65;;
58685;SDS011;44465;53.206;-6.106;2023-04-07T04:06:23;0.30;;;0.30;;
58685;SDS011;44465;53.206;-6.106;2023-04-07T04:08:50;0.47;;;0.47;;
58685;SDS011;44465;53.206;-6.106;2023-04-07T04:11:16;0.63;;;0.60;;
58685;SDS011;44465;53.206;-6.106;2023-04-07T04:13:51;0.40;;;0.32;;
58685;SDS011;44465;53.206;-6.106;2023-04-07T04:16:17;0.30;;;0.30;;
58685;SDS011;44465;53.206;-6.106;2023-04-07T04:18:43;0.55;;;0.40;;
58685;SDS011;44465;53.206;-6.106;2023-04-07T04:21:11;0.47;;;0.40;;
58685;SDS011;44465;53.206;-6.106;2023-04-07T04:23:40;0.77;;;0.52;;
58685;SDS011;44465;53.206;-6.106;2023-04-07T04:26:06;0.50;;;0.50;;
58685;SDS011;44465;53.206;-6.106;2023-04-07T04:28:32;0.52;;;0.52;;
58685;SDS011;44465;53.206;-6.106;2023-04-07T04:30:59;0.43;;;0.40;;
58685;SDS011;44465;53.206;-6.106;2023-04-07T04:33:25;0.40;;;0.40;;
58685;SDS011;44465;53.206;-6.106;2023-04-07T04:35:53;0.47;;;0.40;;
58685;SDS011;44465;53.206;-6.106;2023-04-07T04:38:20;3.15;;;0.60;;
58685;SDS011;44465;53.206;-6.106;2023-04-07T04:40:53;1.10;;;0.40;;
58685;SDS011;44465;53.206;-6.106;2023-04-07T04:43:24;0.63;;;0.60;;
58685;SDS011;44465;53.206;-6.106;2023-04-07T04:45:49;1.20;;;0.40;;
58685;SDS011;44465;53.206;-6.106;2023-04-07T04:48:17;0.85;;;0.40;;
58685;SDS011;44465;53.206;-6.106;2023-04-07T04:50:43;2.35;;;0.40;;
58685;SDS011;44465;53.206;-6.106;2023-04-07T04:53:11;0.55;;;0.55;;
58685;SDS011;44465;53.206;-6.106;2023-04-07T04:55:44;0.30;;;0.30;;
58685;SDS011;44465;53.206;-6.106;2023-04-07T04:58:20;0.40;;;0.40;;
58685;SDS011;44465;53.206;-6.106;2023-04-07T05:00:52;0.57;;;0.57;;
58685;SDS011;44465;53.206;-6.106;2023-04-07T05:03:25;0.50;;;0.45;;
58685;SDS011;44465;53.206;-6.106;2023-04-07T05:05:53;0.55;;;0.43;;
58685;SDS011;44465;53.206;-6.106;2023-04-07T05:08:21;1.15;;;0.50;;
58685;SDS011;44465;53.206;-6.106;2023-04-07T05:10:46;0.85;;;0.50;;
58685;SDS011;44465;53.206;-6.106;2023-04-07T05:15:40;0.60;;;0.60;;
58685;SDS011;44465;53.206;-6.106;2023-04-07T05:18:08;0.70;;;0.52;;
58685;SDS011;44465;53.206;-6.106;2023-04-07T05:20:34;0.57;;;0.55;;
58685;SDS011;44465;53.206;-6.106;2023-04-07T05:23:00;1.02;;;0.52;;
58685;SDS011;44465;53.206;-6.106;2023-04-07T05:25:31;1.17;;;0.88;;
58685;SDS011;44465;53.206;-6.106;2023-04-07T05:27:59;0.88;;;0.50;;
58685;SDS011;44465;53.206;-6.106;2023-04-07T05:30:25;0.52;;;0.50;;
58685;SDS011;44465;53.206;-6.106;2023-04-07T05:32:51;0.68;;;0.57;;
58685;SDS011;44465;53.206;-6.106;2023-04-07T05:35:26;0.40;;;0.40;;
58685;SDS011;44465;53.206;-6.106;2023-04-07T05:37:54;0.60;;;0.60;;
58685;SDS011;44465;53.206;-6.106;2023-04-07T05:40:20;0.40;;;0.40;;
58685;SDS011;44465;53.206;-6.106;2023-04-07T05:42:46;0.43;;;0.30;;
58685;SDS011;44465;53.206;-6.106;2023-04-07T05:45:12;0.68;;;0.30;;
58685;SDS011;44465;53.206;-6.106;2023-04-07T05:47:41;0.47;;;0.45;;
58685;SDS011;44465;53.206;-6.106;2023-04-07T05:50:08;0.57;;;0.47;;
58685;SDS011;44465;53.206;-6.106;2023-04-07T05:52:34;0.50;;;0.50;;
58685;SDS011;44465;53.206;-6.106;2023-04-07T05:55:10;1.55;;;0.40;;
58685;SDS011;44465;53.206;-6.106;2023-04-07T05:57:36;0.52;;;0.40;;
58685;SDS011;44465;53.206;-6.106;2023-04-07T06:00:02;0.38;;;0.38;;
58685;SDS011;44465;53.206;-6.106;2023-04-07T06:02:39;0.50;;;0.50;;
58685;SDS011;44465;53.206;-6.106;2023-04-07T06:05:08;0.95;;;0.60;;
58685;SDS011;44465;53.206;-6.106;2023-04-07T06:07:36;0.60;;;0.57;;
58685;SDS011;44465;53.206;-6.106;2023-04-07T06:10:01;1.27;;;0.60;;
58685;SDS011;44465;53.206;-6.106;2023-04-07T06:12:27;0.73;;;0.55;;
58685;SDS011;44465;53.206;-6.106;2023-04-07T06:14:53;1.08;;;0.65;;
58685;SDS011;44465;53.206;-6.106;2023-04-07T06:17:20;0.60;;;0.47;;
58685;SDS011;44465;53.206;-6.106;2023-04-07T06:19:46;1.15;;;0.60;;
58685;SDS011;44465;53.206;-6.106;2023-04-07T06:22:12;0.47;;;0.47;;
58685;SDS011;44465;53.206;-6.106;2023-04-07T06:24:38;0.57;;;0.57;;
58685;SDS011;44465;53.206;-6.106;2023-04-07T06:27:03;0.77;;;0.47;;
58685;SDS011;44465;53.206;-6.106;2023-04-07T06:29:29;0.80;;;0.40;;
58685;SDS011;44465;53.206;-6.106;2023-04-07T06:31:56;2.33;;;0.70;;
58685;SDS011;44465;53.206;-6.106;2023-04-07T06:34:22;0.47;;;0.40;;
58685;SDS011;44465;53.206;-6.106;2023-04-07T06:36:47;0.52;;;0.40;;
58685;SDS011;44465;53.206;-6.106;2023-04-07T06:39:13;1.25;;;0.60;;
58685;SDS011;44465;53.206;-6.106;2023-04-07T06:41:38;0.57;;;0.43;;
58685;SDS011;44465;53.206;-6.106;2023-04-07T06:44:07;0.40;;;0.40;;
58685;SDS011;44465;53.206;-6.106;2023-04-07T06:46:35;1.30;;;0.60;;
58685;SDS011;44465;53.206;-6.106;2023-04-07T06:49:01;1.35;;;0.60;;
58685;SDS011;44465;53.206;-6.106;2023-04-07T06:51:27;0.73;;;0.43;;
58685;SDS011;44465;53.206;-6.106;2023-04-07T06:53:53;0.60;;;0.60;;
58685;SDS011;44465;53.206;-6.106;2023-04-07T06:56:19;2.05;;;0.50;;
58685;SDS011;44465;53.206;-6.106;2023-04-07T06:58:45;1.67;;;0.95;;
58685;SDS011;44465;53.206;-6.106;2023-04-07T07:01:11;0.43;;;0.43;;
58685;SDS011;44465;53.206;-6.106;2023-04-07T07:03:36;2.05;;;0.70;;
58685;SDS011;44465;53.206;-6.106;2023-04-07T07:06:02;0.95;;;0.80;;
58685;SDS011;44465;53.206;-6.106;2023-04-07T07:08:28;0.88;;;0.40;;
58685;SDS011;44465;53.206;-6.106;2023-04-07T07:10:53;1.10;;;0.40;;
58685;SDS011;44465;53.206;-6.106;2023-04-07T07:13:20;0.70;;;0.57;;
58685;SDS011;44465;53.206;-6.106;2023-04-07T07:15:50;1.75;;;0.82;;
58685;SDS011;44465;53.206;-6.106;2023-04-07T07:18:17;0.40;;;0.40;;
58685;SDS011;44465;53.206;-6.106;2023-04-07T07:20:43;0.57;;;0.50;;
58685;SDS011;44465;53.206;-6.106;2023-04-07T07:23:09;1.27;;;0.60;;
58685;SDS011;44465;53.206;-6.106;2023-04-07T07:25:34;1.35;;;0.43;;
58685;SDS011;44465;53.206;-6.106;2023-04-07T07:28:00;1.55;;;0.52;;
58685;SDS011;44465;53.206;-6.106;2023-04-07T07:30:26;0.45;;;0.45;;
58685;SDS011;44465;53.206;-6.106;2023-04-07T07:32:52;0.95;;;0.50;;
58685;SDS011;44465;53.206;-6.106;2023-04-07T07:35:18;0.50;;;0.50;;
58685;SDS011;44465;53.206;-6.106;2023-04-07T07:37:45;0.63;;;0.63;;
58685;SDS011;44465;53.206;-6.106;2023-04-07T07:40:10;1.00;;;0.50;;
58685;SDS011;44465;53.206;-6.106;2023-04-07T07:42:37;1.05;;;0.47;;
58685;SDS011;44465;53.206;-6.106;2023-04-07T07:45:02;1.55;;;0.60;;
58685;SDS011;44465;53.206;-6.106;2023-04-07T07:47:28;0.55;;;0.55;;
58685;SDS011;44465;53.206;-6.106;2023-04-07T07:49:54;1.02;;;0.57;;
58685;SDS011;44465;53.206;-6.106;2023-04-07T07:52:20;2.15;;;0.70;;
58685;SDS011;44465;53.206;-6.106;2023-04-07T07:54:47;0.60;;;0.60;;
58685;SDS011;44465;53.206;-6.106;2023-04-07T07:57:12;1.85;;;0.52;;
58685;SDS011;44465;53.206;-6.106;2023-04-07T07:59:38;1.50;;;0.75;;
58685;SDS011;44465;53.206;-6.106;2023-04-07T08:02:05;3.22;;;0.80;;
58685;SDS011;44465;53.206;-6.106;2023-04-07T08:04:31;0.60;;;0.60;;
58685;SDS011;44465;53.206;-6.106;2023-04-07T08:06:57;0.65;;;0.60;;
58685;SDS011;44465;53.206;-6.106;2023-04-07T08:09:23;0.55;;;0.55;;
58685;SDS011;44465;53.206;-6.106;2023-04-07T08:11:48;1.08;;;0.60;;
58685;SDS011;44465;53.206;-6.106;2023-04-07T08:14:15;1.33;;;0.50;;
58685;SDS011;44465;53.206;-6.106;2023-04-07T08:16:41;0.73;;;0.47;;
58685;SDS011;44465;53.206;-6.106;2023-04-07T08:19:07;1.05;;;0.40;;
58685;SDS011;44465;53.206;-6.106;2023-04-07T08:21:33;0.52;;;0.52;;
58685;SDS011;44465;53.206;-6.106;2023-04-07T08:23:58;0.73;;;0.65;;
58685;SDS011;44465;53.206;-6.106;2023-04-07T08:26:25;0.77;;;0.60;;
58685;SDS011;44465;53.206;-6.106;2023-04-07T08:28:51;0.70;;;0.40;;
58685;SDS011;44465;53.206;-6.106;2023-04-07T08:31:17;1.88;;;0.70;;
58685;SDS011;44465;53.206;-6.106;2023-04-07T08:33:42;2.33;;;0.80;;
58685;SDS011;44465;53.206;-6.106;2023-04-07T08:36:08;0.88;;;0.65;;
58685;SDS011;44465;53.206;-6.106;2023-04-07T08:38:34;0.52;;;0.52;;
58685;SDS011;44465;53.206;-6.106;2023-04-07T08:41:02;0.50;;;0.50;;
58685;SDS011;44465;53.206;-6.106;2023-04-07T08:43:34;1.45;;;0.75;;
58685;SDS011;44465;53.206;-6.106;2023-04-07T08:46:01;0.50;;;0.50;;
58685;SDS011;44465;53.206;-6.106;2023-04-07T08:48:28;0.60;;;0.60;;
58685;SDS011;44465;53.206;-6.106;2023-04-07T08:51:03;0.80;;;0.68;;
58685;SDS011;44465;53.206;-6.106;2023-04-07T08:53:40;1.45;;;0.60;;
58685;SDS011;44465;53.206;-6.106;2023-04-07T08:56:10;1.63;;;0.57;;
58685;SDS011;44465;53.206;-6.106;2023-04-07T08:58:37;2.53;;;0.70;;
58685;SDS011;44465;53.206;-6.106;2023-04-07T09:01:03;0.63;;;0.60;;
58685;SDS011;44465;53.206;-6.106;2023-04-07T09:03:30;4.28;;;0.68;;
58685;SDS011;44465;53.206;-6.106;2023-04-07T09:05:59;3.90;;;0.93;;
58685;SDS011;44465;53.206;-6.106;2023-04-07T09:10:51;3.83;;;0.77;;
58685;SDS011;44465;53.206;-6.106;2023-04-07T09:13:16;5.10;;;1.00;;
58685;SDS011;44465;53.206;-6.106;2023-04-07T09:15:42;6.88;;;1.38;;
58685;SDS011;44465;53.206;-6.106;2023-04-07T09:18:07;6.78;;;1.75;;
58685;SDS011;44465;53.206;-6.106;2023-04-07T09:23:32;6.38;;;1.40;;
58685;SDS011;44465;53.206;-6.106;2023-04-07T09:26:00;5.07;;;1.02;;
58685;SDS011;44465;53.206;-6.106;2023-04-07T09:28:47;10.30;;;1.43;;
58685;SDS011;44465;53.206;-6.106;2023-04-07T09:31:20;7.55;;;1.23;;
58685;SDS011;44465;53.206;-6.106;2023-04-07T09:33:48;7.25;;;1.25;;
58685;SDS011;44465;53.206;-6.106;2023-04-07T09:36:14;6.55;;;1.58;;
58685;SDS011;44465;53.206;-6.106;2023-04-07T09:38:40;8.57;;;1.35;;
58685;SDS011;44465;53.206;-6.106;2023-04-07T09:41:10;6.35;;;1.45;;
58685;SDS011;44465;53.206;-6.106;2023-04-07T09:43:38;9.40;;;1.50;;
58685;SDS011;44465;53.206;-6.106;2023-04-07T09:46:09;5.45;;;1.20;;
58685;SDS011;44465;53.206;-6.106;2023-04-07T09:48:42;10.23;;;1.80;;
58685;SDS011;44465;53.206;-6.106;2023-04-07T09:51:10;7.13;;;2.20;;
58685;SDS011;44465;53.206;-6.106;2023-04-07T09:56:09;5.60;;;1.60;;
58685;SDS011;44465;53.206;-6.106;2023-04-07T09:58:39;5.00;;;1.63;;
58685;SDS011;44465;53.206;-6.106;2023-04-07T10:01:08;10.40;;;1.90;;
58685;SDS011;44465;53.206;-6.106;2023-04-07T10:03:35;8.68;;;1.40;;
58685;SDS011;44465;53.206;-6.106;2023-04-07T10:06:01;5.40;;;1.55;;
58685;SDS011;44465;53.206;-6.106;2023-04-07T10:08:29;7.50;;;1.67;;
58685;SDS011;44465;53.206;-6.106;2023-04-07T10:10:56;19.73;;;3.33;;
58685;SDS011;44465;53.206;-6.106;2023-04-07T10:13:23;18.07;;;2.73;;
58685;SDS011;44465;53.206;-6.106;2023-04-07T10:15:50;19.25;;;4.13;;
58685;SDS011;44465;53.206;-6.106;2023-04-07T10:18:16;24.95;;;3.47;;
58685;SDS011;44465;53.206;-6.106;2023-04-07T10:20:44;27.88;;;3.33;;
58685;SDS011;44465;53.206;-6.106;2023-04-07T10:23:20;28.70;;;5.25;;
58685;SDS011;44465;53.206;-6.106;2023-04-07T10:25:50;64.25;;;9.82;;
58685;SDS011;44465;53.206;-6.106;2023-04-07T10:28:19;34.78;;;8.95;;
58685;SDS011;44465;53.206;-6.106;2023-04-07T10:30:47;43.17;;;12.25;;
58685;SDS011;44465;53.206;-6.106;2023-04-07T10:33:13;36.50;;;11.40;;
58685;SDS011;44465;53.206;-6.106;2023-04-07T10:38:41;33.85;;;8.40;;
58685;SDS011;44465;53.206;-6.106;2023-04-07T10:43:58;6.30;;;2.22;;
58685;SDS011;44465;53.206;-6.106;2023-04-07T10:46:24;11.20;;;2.50;;
58685;SDS011;44465;53.206;-6.106;2023-04-07T10:49:08;4.95;;;2.33;;
58685;SDS011;44465;53.206;-6.106;2023-04-07T10:51:35;6.70;;;2.10;;
58685;SDS011;44465;53.206;-6.106;2023-04-07T10:59:27;17.65;;;3.53;;
58685;SDS011;44465;53.206;-6.106;2023-04-07T11:04:38;36.38;;;4.97;;
58685;SDS011;44465;53.206;-6.106;2023-04-07T11:07:05;20.98;;;3.92;;
58685;SDS011;44465;53.206;-6.106;2023-04-07T11:09:31;61.92;;;8.15;;
58685;SDS011;44465;53.206;-6.106;2023-04-07T11:11:56;29.95;;;4.55;;
58685;SDS011;44465;53.206;-6.106;2023-04-07T11:14:25;31.50;;;4.80;;
58685;SDS011;44465;53.206;-6.106;2023-04-07T11:16:52;33.28;;;5.30;;
58685;SDS011;44465;53.206;-6.106;2023-04-07T11:19:18;40.10;;;5.80;;
58685;SDS011;44465;53.206;-6.106;2023-04-07T11:21:43;46.00;;;6.10;;
58685;SDS011;44465;53.206;-6.106;2023-04-07T11:24:09;41.20;;;6.07;;
58685;SDS011;44465;53.206;-6.106;2023-04-07T11:26:39;27.65;;;4.85;;
58685;SDS011;44465;53.206;-6.106;2023-04-07T11:29:05;25.38;;;5.07;;
58685;SDS011;44465;53.206;-6.106;2023-04-07T11:31:32;33.40;;;5.18;;
58685;SDS011;44465;53.206;-6.106;2023-04-07T11:34:01;33.83;;;5.00;;
58685;SDS011;44465;53.206;-6.106;2023-04-07T11:36:29;33.28;;;5.38;;
58685;SDS011;44465;53.206;-6.106;2023-04-07T11:38:57;38.17;;;4.88;;
58685;SDS011;44465;53.206;-6.106;2023-04-07T11:41:24;47.67;;;6.20;;
58685;SDS011;44465;53.206;-6.106;2023-04-07T11:46:30;54.10;;;7.65;;
58685;SDS011;44465;53.206;-6.106;2023-04-07T11:49:06;75.35;;;10.27;;
58685;SDS011;44465;53.206;-6.106;2023-04-07T11:51:33;93.13;;;11.38;;
58685;SDS011;44465;53.206;-6.106;2023-04-07T11:53:58;89.60;;;11.25;;
58685;SDS011;44465;53.206;-6.106;2023-04-07T11:56:25;115.22;;;13.63;;
58685;SDS011;44465;53.206;-6.106;2023-04-07T11:58:53;109.75;;;11.77;;
58685;SDS011;44465;53.206;-6.106;2023-04-07T12:01:19;104.55;;;12.40;;
58685;SDS011;44465;53.206;-6.106;2023-04-07T12:06:29;59.28;;;8.77;;
58685;SDS011;44465;53.206;-6.106;2023-04-07T12:09:00;65.15;;;9.05;;
58685;SDS011;44465;53.206;-6.106;2023-04-07T12:11:26;68.13;;;9.98;;
58685;SDS011;44465;53.206;-6.106;2023-04-07T12:13:52;65.60;;;8.55;;
58685;SDS011;44465;53.206;-6.106;2023-04-07T12:16:18;79.85;;;10.93;;
58685;SDS011;44465;53.206;-6.106;2023-04-07T12:18:45;86.20;;;9.85;;
58685;SDS011;44465;53.206;-6.106;2023-04-07T12:21:10;71.90;;;9.95;;
58685;SDS011;44465;53.206;-6.106;2023-04-07T12:23:36;72.78;;;11.13;;
58685;SDS011;44465;53.206;-6.106;2023-04-07T12:26:01;106.18;;;11.15;;
58685;SDS011;44465;53.206;-6.106;2023-04-07T12:28:27;100.20;;;12.75;;
58685;SDS011;44465;53.206;-6.106;2023-04-07T12:30:53;45.58;;;6.57;;
58685;SDS011;44465;53.206;-6.106;2023-04-07T12:33:18;82.60;;;11.32;;
58685;SDS011;44465;53.206;-6.106;2023-04-07T12:35:44;122.78;;;13.93;;
58685;SDS011;44465;53.206;-6.106;2023-04-07T12:38:10;157.27;;;17.27;;
58685;SDS011;44465;53.206;-6.106;2023-04-07T12:40:42;154.98;;;15.55;;
58685;SDS011;44465;53.206;-6.106;2023-04-07T12:43:08;105.13;;;14.02;;
58685;SDS011;44465;53.206;-6.106;2023-04-07T12:45:33;115.97;;;14.48;;
58685;SDS011;44465;53.206;-6.106;2023-04-07T12:47:59;113.50;;;14.07;;
58685;SDS011;44465;53.206;-6.106;2023-04-07T12:50:25;110.40;;;15.27;;
58685;SDS011;44465;53.206;-6.106;2023-04-07T12:52:51;119.80;;;15.25;;
58685;SDS011;44465;53.206;-6.106;2023-04-07T12:55:17;118.63;;;15.82;;
58685;SDS011;44465;53.206;-6.106;2023-04-07T12:57:43;108.97;;;13.18;;
58685;SDS011;44465;53.206;-6.106;2023-04-07T13:00:08;140.93;;;15.55;;
58685;SDS011;44465;53.206;-6.106;2023-04-07T13:02:34;97.18;;;13.48;;
58685;SDS011;44465;53.206;-6.106;2023-04-07T13:05:03;129.65;;;14.60;;
58685;SDS011;44465;53.206;-6.106;2023-04-07T13:07:29;127.85;;;14.10;;
58685;SDS011;44465;53.206;-6.106;2023-04-07T13:09:54;116.05;;;14.73;;
58685;SDS011;44465;53.206;-6.106;2023-04-07T13:12:21;153.82;;;18.13;;
58685;SDS011;44465;53.206;-6.106;2023-04-07T13:14:48;166.88;;;19.15;;
58685;SDS011;44465;53.206;-6.106;2023-04-07T13:17:13;130.38;;;17.10;;
58685;SDS011;44465;53.206;-6.106;2023-04-07T13:19:39;128.98;;;16.60;;
58685;SDS011;44465;53.206;-6.106;2023-04-07T13:22:05;145.45;;;20.27;;
58685;SDS011;44465;53.206;-6.106;2023-04-07T13:24:31;201.63;;;25.20;;
58685;SDS011;44465;53.206;-6.106;2023-04-07T13:27:00;175.90;;;21.30;;
58685;SDS011;44465;53.206;-6.106;2023-04-07T13:29:26;137.38;;;20.70;;
58685;SDS011;44465;53.206;-6.106;2023-04-07T13:31:52;135.80;;;19.60;;
58685;SDS011;44465;53.206;-6.106;2023-04-07T13:34:18;132.73;;;19.70;;
58685;SDS011;44465;53.206;-6.106;2023-04-07T13:36:43;112.70;;;14.75;;
58685;SDS011;44465;53.206;-6.106;2023-04-07T13:39:09;119.05;;;14.88;;
58685;SDS011;44465;53.206;-6.106;2023-04-07T13:41:35;111.47;;;14.25;;
58685;SDS011;44465;53.206;-6.106;2023-04-07T13:44:00;112.03;;;15.63;;
58685;SDS011;44465;53.206;-6.106;2023-04-07T13:46:26;102.30;;;16.83;;
58685;SDS011;44465;53.206;-6.106;2023-04-07T13:48:52;83.68;;;12.82;;
58685;SDS011;44465;53.206;-6.106;2023-04-07T13:51:17;83.13;;;12.52;;
58685;SDS011;44465;53.206;-6.106;2023-04-07T13:53:44;85.00;;;13.10;;
58685;SDS011;44465;53.206;-6.106;2023-04-07T13:56:09;83.90;;;12.18;;
58685;SDS011;44465;53.206;-6.106;2023-04-07T13:58:35;80.47;;;12.73;;
58685;SDS011;44465;53.206;-6.106;2023-04-07T14:01:02;62.35;;;10.32;;
58685;SDS011;44465;53.206;-6.106;2023-04-07T14:03:28;64.03;;;10.57;;
58685;SDS011;44465;53.206;-6.106;2023-04-07T14:05:53;85.75;;;12.30;;
58685;SDS011;44465;53.206;-6.106;2023-04-07T14:08:22;69.75;;;12.38;;
58685;SDS011;44465;53.206;-6.106;2023-04-07T14:10:48;61.90;;;9.57;;
58685;SDS011;44465;53.206;-6.106;2023-04-07T14:13:14;66.65;;;10.27;;
58685;SDS011;44465;53.206;-6.106;2023-04-07T14:15:40;58.58;;;10.80;;
58685;SDS011;44465;53.206;-6.106;2023-04-07T14:18:05;60.13;;;8.93;;
58685;SDS011;44465;53.206;-6.106;2023-04-07T14:20:33;60.30;;;8.55;;
58685;SDS011;44465;53.206;-6.106;2023-04-07T14:22:59;68.45;;;9.95;;
58685;SDS011;44465;53.206;-6.106;2023-04-07T14:25:25;61.83;;;9.57;;
58685;SDS011;44465;53.206;-6.106;2023-04-07T14:27:56;61.92;;;8.77;;
58685;SDS011;44465;53.206;-6.106;2023-04-07T14:30:22;51.35;;;8.48;;
58685;SDS011;44465;53.206;-6.106;2023-04-07T14:32:48;46.90;;;7.03;;
58685;SDS011;44465;53.206;-6.106;2023-04-07T14:35:14;56.53;;;8.93;;
58685;SDS011;44465;53.206;-6.106;2023-04-07T14:37:40;53.88;;;8.45;;
58685;SDS011;44465;53.206;-6.106;2023-04-07T14:40:06;46.53;;;7.97;;
58685;SDS011;44465;53.206;-6.106;2023-04-07T14:42:32;49.30;;;7.15;;
58685;SDS011;44465;53.206;-6.106;2023-04-07T14:44:58;37.05;;;7.38;;
58685;SDS011;44465;53.206;-6.106;2023-04-07T14:47:25;31.65;;;6.20;;
58685;SDS011;44465;53.206;-6.106;2023-04-07T14:49:51;34.40;;;4.88;;
58685;SDS011;44465;53.206;-6.106;2023-04-07T14:52:18;31.70;;;5.22;;
58685;SDS011;44465;53.206;-6.106;2023-04-07T14:54:45;35.45;;;5.43;;
58685;SDS011;44465;53.206;-6.106;2023-04-07T14:57:11;34.22;;;5.05;;
58685;SDS011;44465;53.206;-6.106;2023-04-07T14:59:37;28.65;;;5.75;;
58685;SDS011;44465;53.206;-6.106;2023-04-07T15:02:03;26.92;;;5.65;;
58685;SDS011;44465;53.206;-6.106;2023-04-07T15:04:29;51.83;;;6.88;;
58685;SDS011;44465;53.206;-6.106;2023-04-07T15:06:54;29.88;;;5.97;;